sensor_id;sensor_type;location;lat;lon;timestamp;pressure;altitude;pressure_sealevel;temperature;humidity
19023;BME280;35226;48.606;8.858;2023-04-01T00:00:55;95081.84;;;7.77;100.00
19023;BME280;35226;48.606;8.858;2023-04-01T00:03:21;95076.78;;;7.67;100.00
19023;BME280;35226;48.606;8.858;2023-04-01T00:05:47;95067.59;;;7.61;100.00
19023;BME280;35226;48.606;8.858;2023-04-01T00:08:13;95061.47;;;7.57;100.00
19023;BME280;35226;48.606;8.858;2023-04-01T00:10:38;95063.59;;;7.53;100.00
19023;BME280;35226;48.606;8.858;2023-04-01T00:13:04;95055.06;;;7.60;100.00
19023;BME280;35226;48.606;8.858;2023-04-01T00:15:29;95052.31;;;7.51;100.00
19023;BME280;35226;48.606;8.858;2023-04-01T00:17:55;95057.81;;;7.60;100.00
19023;BME280;35226;48.606;8.858;2023-04-01T00:20:21;95054.88;;;7.54;100.00
19023;BME280;35226;48.606;8.858;2023-04-01T00:22:47;95049.72;;;7.56;100.00
19023;BME280;35226;48.606;8.858;2023-04-01T00:25:12;95055.06;;;7.51;100.00
19023;BME280;35226;48.606;8.858;2023-04-01T00:27:38;95054.00;;;7.66;100.00
19023;BME280;35226;48.606;8.858;2023-04-01T00:30:04;95053.22;;;7.57;100.00
19023;BME280;35226;48.606;8.858;2023-04-01T00:32:29;95054.72;;;7.49;100.00
19023;BME280;35226;48.606;8.858;2023-04-01T00:34:56;95050.91;;;7.46;100.00
19023;BME280;35226;48.606;8.858;2023-04-01T00:37:24;95057.31;;;7.43;100.00
19023;BME280;35226;48.606;8.858;2023-04-01T00:39:49;95055.50;;;7.49;100.00
19023;BME280;35226;48.606;8.858;2023-04-01T00:42:15;95059.75;;;7.41;100.00
19023;BME280;35226;48.606;8.858;2023-04-01T00:44:41;95060.25;;;7.58;100.00
19023;BME280;35226;48.606;8.858;2023-04-01T00:47:07;95055.56;;;7.27;100.00
19023;BME280;35226;48.606;8.858;2023-04-01T00:49:37;95051.69;;;7.56;100.00
19023;BME280;35226;48.606;8.858;2023-04-01T00:52:05;95051.50;;;7.41;100.00
19023;BME280;35226;48.606;8.858;2023-04-01T00:54:32;95058.53;;;7.42;100.00
19023;BME280;35226;48.606;8.858;2023-04-01T00:57:09;95058.69;;;7.48;100.00
19023;BME280;35226;48.606;8.858;2023-04-01T00:59:39;95064.22;;;7.57;100.00
19023;BME280;35226;48.606;8.858;2023-04-01T01:02:08;95053.84;;;7.52;100.00
19023;BME280;35226;48.606;8.858;2023-04-01T01:04:35;95064.63;;;7.46;100.00
19023;BME280;35226;48.606;8.858;2023-04-01T01:12:40;95042.78;;;7.33;100.00
19023;BME280;35226;48.606;8.858;2023-04-01T01:15:24;95038.31;;;7.27;100.00
19023;BME280;35226;48.606;8.858;2023-04-01T01:36:30;95068.03;;;7.50;100.00
19023;BME280;35226;48.606;8.858;2023-04-01T01:38:57;95058.66;;;7.38;100.00
19023;BME280;35226;48.606;8.858;2023-04-01T01:41:25;95054.53;;;7.34;100.00
19023;BME280;35226;48.606;8.858;2023-04-01T01:43:54;95051.00;;;7.24;100.00
19023;BME280;35226;48.606;8.858;2023-04-01T01:46:24;95055.53;;;7.18;100.00
19023;BME280;35226;48.606;8.858;2023-04-01T01:48:52;95046.25;;;7.25;100.00
19023;BME280;35226;48.606;8.858;2023-04-01T01:51:20;95036.31;;;7.18;100.00
19023;BME280;35226;48.606;8.858;2023-04-01T01:53:47;95036.63;;;7.20;100.00
19023;BME280;35226;48.606;8.858;2023-04-01T01:56:17;95041.16;;;7.05;100.00
19023;BME280;35226;48.606;8.858;2023-04-01T01:58:46;95046.56;;;6.96;100.00
19023;BME280;35226;48.606;8.858;2023-04-01T02:01:18;95036.72;;;7.07;100.00
19023;BME280;35226;48.606;8.858;2023-04-01T02:03:45;95045.44;;;7.15;100.00
19023;BME280;35226;48.606;8.858;2023-04-01T02:06:17;95043.56;;;7.03;100.00
19023;BME280;35226;48.606;8.858;2023-04-01T02:11:23;95055.00;;;7.01;100.00
19023;BME280;35226;48.606;8.858;2023-04-01T02:16:31;95034.75;;;7.08;100.00
19023;BME280;35226;48.606;8.858;2023-04-01T02:19:01;95038.69;;;7.07;100.00
19023;BME280;35226;48.606;8.858;2023-04-01T02:21:33;95046.16;;;7.06;100.00
19023;BME280;35226;48.606;8.858;2023-04-01T02:24:02;95046.84;;;6.89;100.00
19023;BME280;35226;48.606;8.858;2023-04-01T02:26:29;95047.66;;;6.98;100.00
19023;BME280;35226;48.606;8.858;2023-04-01T02:28:57;95044.06;;;6.80;100.00
19023;BME280;35226;48.606;8.858;2023-04-01T02:31:24;95056.28;;;6.88;100.00
19023;BME280;35226;48.606;8.858;2023-04-01T02:33:50;95051.44;;;6.92;100.00
19023;BME280;35226;48.606;8.858;2023-04-01T02:36:17;95050.41;;;6.98;100.00
19023;BME280;35226;48.606;8.858;2023-04-01T02:38:44;95057.56;;;6.65;100.00
19023;BME280;35226;48.606;8.858;2023-04-01T02:41:10;95063.16;;;6.61;100.00
19023;BME280;35226;48.606;8.858;2023-04-01T02:43:36;95058.31;;;6.65;100.00
19023;BME280;35226;48.606;8.858;2023-04-01T02:46:01;95046.81;;;6.80;100.00
19023;BME280;35226;48.606;8.858;2023-04-01T02:48:27;95038.13;;;6.59;100.00
19023;BME280;35226;48.606;8.858;2023-04-01T02:50:53;95034.69;;;6.68;100.00
19023;BME280;35226;48.606;8.858;2023-04-01T02:53:18;95029.72;;;6.76;100.00
19023;BME280;35226;48.606;8.858;2023-04-01T02:55:44;95037.84;;;6.88;100.00
19023;BME280;35226;48.606;8.858;2023-04-01T02:58:10;95040.53;;;6.79;100.00
19023;BME280;35226;48.606;8.858;2023-04-01T03:00:36;95030.81;;;6.87;100.00
19023;BME280;35226;48.606;8.858;2023-04-01T03:03:01;95038.25;;;6.78;100.00
19023;BME280;35226;48.606;8.858;2023-04-01T03:05:28;95038.56;;;6.80;100.00
19023;BME280;35226;48.606;8.858;2023-04-01T03:07:53;95035.72;;;6.61;100.00
19023;BME280;35226;48.606;8.858;2023-04-01T03:10:19;95041.03;;;6.56;100.00
19023;BME280;35226;48.606;8.858;2023-04-01T03:12:45;95041.97;;;6.62;100.00
19023;BME280;35226;48.606;8.858;2023-04-01T03:15:12;95041.72;;;6.47;100.00
19023;BME280;35226;48.606;8.858;2023-04-01T03:17:40;95048.56;;;6.64;100.00
19023;BME280;35226;48.606;8.858;2023-04-01T03:20:06;95037.69;;;6.83;100.00
19023;BME280;35226;48.606;8.858;2023-04-01T03:22:34;95040.63;;;6.66;100.00
19023;BME280;35226;48.606;8.858;2023-04-01T03:25:01;95041.22;;;6.61;100.00
19023;BME280;35226;48.606;8.858;2023-04-01T03:27:27;95042.03;;;6.71;100.00
19023;BME280;35226;48.606;8.858;2023-04-01T03:29:52;95037.31;;;6.72;100.00
19023;BME280;35226;48.606;8.858;2023-04-01T03:32:18;95037.56;;;6.64;100.00
19023;BME280;35226;48.606;8.858;2023-04-01T03:34:43;95035.44;;;6.68;100.00
19023;BME280;35226;48.606;8.858;2023-04-01T03:37:09;95043.19;;;6.61;100.00
19023;BME280;35226;48.606;8.858;2023-04-01T03:39:34;95033.88;;;6.58;100.00
19023;BME280;35226;48.606;8.858;2023-04-01T03:42:00;95034.59;;;6.81;100.00
19023;BME280;35226;48.606;8.858;2023-04-01T03:44:26;95027.84;;;6.73;100.00
19023;BME280;35226;48.606;8.858;2023-04-01T03:46:52;95041.66;;;6.60;100.00
19023;BME280;35226;48.606;8.858;2023-04-01T03:49:18;95034.47;;;6.53;100.00
19023;BME280;35226;48.606;8.858;2023-04-01T03:51:43;95029.69;;;6.45;100.00
19023;BME280;35226;48.606;8.858;2023-04-01T03:54:10;95024.19;;;6.45;100.00
19023;BME280;35226;48.606;8.858;2023-04-01T03:56:36;95017.09;;;6.35;100.00
19023;BME280;35226;48.606;8.858;2023-04-01T03:59:03;95029.78;;;6.41;100.00
19023;BME280;35226;48.606;8.858;2023-04-01T04:01:29;95030.88;;;6.44;100.00
19023;BME280;35226;48.606;8.858;2023-04-01T04:03:55;95021.50;;;6.54;100.00
19023;BME280;35226;48.606;8.858;2023-04-01T04:06:22;95015.25;;;6.31;100.00
19023;BME280;35226;48.606;8.858;2023-04-01T04:08:48;95009.66;;;6.35;100.00
19023;BME280;35226;48.606;8.858;2023-04-01T04:11:15;95016.28;;;6.25;100.00
19023;BME280;35226;48.606;8.858;2023-04-01T04:13:42;95015.63;;;6.21;100.00
19023;BME280;35226;48.606;8.858;2023-04-01T04:16:09;95023.34;;;6.13;100.00
19023;BME280;35226;48.606;8.858;2023-04-01T04:18:38;95030.47;;;6.11;100.00
19023;BME280;35226;48.606;8.858;2023-04-01T04:21:04;95038.91;;;6.16;100.00
19023;BME280;35226;48.606;8.858;2023-04-01T04:23:30;95044.44;;;6.04;100.00
19023;BME280;35226;48.606;8.858;2023-04-01T04:26:05;95044.13;;;6.02;100.00
19023;BME280;35226;48.606;8.858;2023-04-01T04:28:32;95058.19;;;5.91;100.00
19023;BME280;35226;48.606;8.858;2023-04-01T04:30:58;95051.13;;;6.03;100.00
19023;BME280;35226;48.606;8.858;2023-04-01T04:33:24;95061.34;;;6.02;100.00
19023;BME280;35226;48.606;8.858;2023-04-01T04:35:51;95054.84;;;6.09;100.00
19023;BME280;35226;48.606;8.858;2023-04-01T04:38:17;95056.75;;;6.21;100.00
19023;BME280;35226;48.606;8.858;2023-04-01T04:40:43;95059.19;;;6.19;100.00
19023;BME280;35226;48.606;8.858;2023-04-01T04:43:14;95064.38;;;6.17;100.00
19023;BME280;35226;48.606;8.858;2023-04-01T04:45:41;95056.97;;;6.26;100.00
19023;BME280;35226;48.606;8.858;2023-04-01T04:48:13;95065.84;;;6.30;100.00
19023;BME280;35226;48.606;8.858;2023-04-01T04:50:48;95057.94;;;6.32;100.00
19023;BME280;35226;48.606;8.858;2023-04-01T04:53:16;95066.78;;;6.37;100.00
19023;BME280;35226;48.606;8.858;2023-04-01T04:55:46;95053.22;;;6.33;100.00
19023;BME280;35226;48.606;8.858;2023-04-01T04:58:21;95042.94;;;6.46;100.00
19023;BME280;35226;48.606;8.858;2023-04-01T05:00:47;95038.66;;;6.45;100.00
19023;BME280;35226;48.606;8.858;2023-04-01T05:03:19;95045.09;;;6.51;100.00
19023;BME280;35226;48.606;8.858;2023-04-01T05:05:50;95047.59;;;6.58;100.00
19023;BME280;35226;48.606;8.858;2023-04-01T05:08:17;95039.34;;;6.58;100.00
19023;BME280;35226;48.606;8.858;2023-04-01T05:10:42;95035.13;;;6.66;100.00
19023;BME280;35226;48.606;8.858;2023-04-01T05:13:08;95026.28;;;6.62;100.00
19023;BME280;35226;48.606;8.858;2023-04-01T05:15:34;95030.69;;;6.60;100.00
19023;BME280;35226;48.606;8.858;2023-04-01T05:18:00;95028.44;;;6.67;100.00
19023;BME280;35226;48.606;8.858;2023-04-01T05:20:26;95014.84;;;6.64;100.00
19023;BME280;35226;48.606;8.858;2023-04-01T05:22:56;95019.63;;;6.73;100.00
19023;BME280;35226;48.606;8.858;2023-04-01T05:25:22;95008.78;;;6.69;100.00
19023;BME280;35226;48.606;8.858;2023-04-01T05:27:47;95014.47;;;6.75;100.00
19023;BME280;35226;48.606;8.858;2023-04-01T05:30:13;95004.69;;;6.74;100.00
19023;BME280;35226;48.606;8.858;2023-04-01T05:32:57;95005.47;;;6.74;100.00
19023;BME280;35226;48.606;8.858;2023-04-01T05:35:23;95000.09;;;6.71;100.00
19023;BME280;35226;48.606;8.858;2023-04-01T05:37:48;94998.66;;;6.88;100.00
19023;BME280;35226;48.606;8.858;2023-04-01T05:40:14;94984.56;;;6.77;100.00
19023;BME280;35226;48.606;8.858;2023-04-01T05:42:39;94989.44;;;6.73;100.00
19023;BME280;35226;48.606;8.858;2023-04-01T05:45:05;94982.09;;;6.69;100.00
19023;BME280;35226;48.606;8.858;2023-04-01T05:47:46;94984.66;;;6.64;100.00
19023;BME280;35226;48.606;8.858;2023-04-01T05:50:12;94990.19;;;6.73;100.00
19023;BME280;35226;48.606;8.858;2023-04-01T05:52:38;94986.69;;;6.73;100.00
19023;BME280;35226;48.606;8.858;2023-04-01T05:55:04;94997.66;;;6.73;100.00
19023;BME280;35226;48.606;8.858;2023-04-01T05:57:31;94983.09;;;6.85;100.00
19023;BME280;35226;48.606;8.858;2023-04-01T05:59:56;94980.59;;;6.78;100.00
19023;BME280;35226;48.606;8.858;2023-04-01T06:02:23;94980.03;;;6.83;100.00
19023;BME280;35226;48.606;8.858;2023-04-01T06:04:49;94981.38;;;6.78;100.00
19023;BME280;35226;48.606;8.858;2023-04-01T06:07:16;94966.47;;;6.88;100.00
19023;BME280;35226;48.606;8.858;2023-04-01T06:09:43;94968.94;;;6.95;100.00
19023;BME280;35226;48.606;8.858;2023-04-01T06:17:48;94979.16;;;6.95;100.00
19023;BME280;35226;48.606;8.858;2023-04-01T06:20:26;94978.22;;;6.89;100.00
19023;BME280;35226;48.606;8.858;2023-04-01T06:25:40;94978.25;;;6.98;100.00
19023;BME280;35226;48.606;8.858;2023-04-01T06:28:30;94979.47;;;6.97;100.00
19023;BME280;35226;48.606;8.858;2023-04-01T06:31:08;94978.50;;;6.82;100.00
19023;BME280;35226;48.606;8.858;2023-04-01T06:34:17;94987.09;;;6.93;100.00
19023;BME280;35226;48.606;8.858;2023-04-01T06:36:53;94983.94;;;7.03;100.00
19023;BME280;35226;48.606;8.858;2023-04-01T06:48:31;95007.44;;;7.04;100.00
19023;BME280;35226;48.606;8.858;2023-04-01T06:58:22;94991.16;;;7.28;100.00
19023;BME280;35226;48.606;8.858;2023-04-01T07:00:53;94987.03;;;7.15;100.00
19023;BME280;35226;48.606;8.858;2023-04-01T07:03:34;94998.97;;;7.39;100.00
19023;BME280;35226;48.606;8.858;2023-04-01T07:06:05;94992.69;;;7.29;100.00
19023;BME280;35226;48.606;8.858;2023-04-01T07:08:40;95004.03;;;7.40;100.00
19023;BME280;35226;48.606;8.858;2023-04-01T07:11:10;95004.47;;;7.39;100.00
19023;BME280;35226;48.606;8.858;2023-04-01T07:14:01;95002.03;;;7.41;100.00
19023;BME280;35226;48.606;8.858;2023-04-01T07:16:35;95002.94;;;7.38;100.00
19023;BME280;35226;48.606;8.858;2023-04-01T07:19:20;95008.47;;;7.47;100.00
19023;BME280;35226;48.606;8.858;2023-04-01T07:22:14;95001.75;;;7.48;100.00
19023;BME280;35226;48.606;8.858;2023-04-01T07:25:51;95006.16;;;7.46;100.00
19023;BME280;35226;48.606;8.858;2023-04-01T07:28:13;95000.97;;;7.38;100.00
19023;BME280;35226;48.606;8.858;2023-04-01T07:33:23;95012.94;;;7.63;100.00
19023;BME280;35226;48.606;8.858;2023-04-01T07:36:00;95008.66;;;7.62;100.00
19023;BME280;35226;48.606;8.858;2023-04-01T07:44:04;95011.22;;;7.47;100.00
19023;BME280;35226;48.606;8.858;2023-04-01T07:49:50;95014.63;;;7.60;100.00
19023;BME280;35226;48.606;8.858;2023-04-01T07:54:59;95019.81;;;7.67;100.00
19023;BME280;35226;48.606;8.858;2023-04-01T08:00:19;95030.81;;;7.67;100.00
19023;BME280;35226;48.606;8.858;2023-04-01T08:03:21;95035.84;;;7.69;100.00
19023;BME280;35226;48.606;8.858;2023-04-01T08:14:56;95049.56;;;7.51;100.00
19023;BME280;35226;48.606;8.858;2023-04-01T08:18:11;95046.28;;;7.83;100.00
19023;BME280;35226;48.606;8.858;2023-04-01T08:20:59;95043.81;;;7.76;100.00
19023;BME280;35226;48.606;8.858;2023-04-01T08:23:28;95052.66;;;7.71;100.00
19023;BME280;35226;48.606;8.858;2023-04-01T08:26:06;95041.47;;;7.65;100.00
19023;BME280;35226;48.606;8.858;2023-04-01T08:28:44;95045.22;;;7.90;100.00
19023;BME280;35226;48.606;8.858;2023-04-01T08:31:17;95049.44;;;7.63;100.00
19023;BME280;35226;48.606;8.858;2023-04-01T08:33:46;95054.44;;;7.56;100.00
19023;BME280;35226;48.606;8.858;2023-04-01T08:36:17;95059.19;;;7.64;100.00
19023;BME280;35226;48.606;8.858;2023-04-01T08:39:06;95060.88;;;7.62;100.00
19023;BME280;35226;48.606;8.858;2023-04-01T08:41:59;95059.66;;;7.54;100.00
19023;BME280;35226;48.606;8.858;2023-04-01T09:12:35;95077.16;;;8.05;100.00
19023;BME280;35226;48.606;8.858;2023-04-01T09:35:02;95095.22;;;8.25;100.00
19023;BME280;35226;48.606;8.858;2023-04-01T09:37:52;95081.91;;;8.23;100.00
19023;BME280;35226;48.606;8.858;2023-04-01T09:57:14;95013.28;;;11.88;100.00
19023;BME280;35226;48.606;8.858;2023-04-01T10:14:41;95025.19;;;11.24;100.00
19023;BME280;35226;48.606;8.858;2023-04-01T10:40:36;95030.59;;;11.19;100.00
19023;BME280;35226;48.606;8.858;2023-04-01T11:33:05;95043.19;;;12.24;100.00
19023;BME280;35226;48.606;8.858;2023-04-01T11:44:50;95055.59;;;12.49;100.00
19023;BME280;35226;48.606;8.858;2023-04-01T11:47:41;95061.53;;;12.02;100.00
19023;BME280;35226;48.606;8.858;2023-04-01T11:50:24;95056.97;;;11.99;100.00
19023;BME280;35226;48.606;8.858;2023-04-01T12:02:04;95067.13;;;12.68;100.00
19023;BME280;35226;48.606;8.858;2023-04-01T12:10:21;95072.38;;;11.85;100.00
19023;BME280;35226;48.606;8.858;2023-04-01T12:13:04;95076.03;;;11.47;100.00
19023;BME280;35226;48.606;8.858;2023-04-01T12:18:24;95065.25;;;11.64;100.00
19023;BME280;35226;48.606;8.858;2023-04-01T12:28:48;95074.22;;;11.59;100.00
19023;BME280;35226;48.606;8.858;2023-04-01T12:45:54;95077.69;;;12.44;100.00
19023;BME280;35226;48.606;8.858;2023-04-01T12:48:35;95093.88;;;12.10;100.00
19023;BME280;35226;48.606;8.858;2023-04-01T13:24:18;95086.47;;;12.02;100.00
19023;BME280;35226;48.606;8.858;2023-04-01T13:27:28;95089.16;;;12.16;100.00
19023;BME280;35226;48.606;8.858;2023-04-01T13:35:57;95101.59;;;11.57;100.00
19023;BME280;35226;48.606;8.858;2023-04-01T13:41:29;95081.97;;;12.24;100.00
19023;BME280;35226;48.606;8.858;2023-04-01T13:52:20;95090.16;;;12.13;100.00
19023;BME280;35226;48.606;8.858;2023-04-01T14:13:56;95099.81;;;12.03;100.00
19023;BME280;35226;48.606;8.858;2023-04-01T14:31:23;95111.03;;;12.14;100.00
19023;BME280;35226;48.606;8.858;2023-04-01T14:39:53;95105.09;;;12.21;100.00
19023;BME280;35226;48.606;8.858;2023-04-01T14:45:42;95099.50;;;11.81;100.00
19023;BME280;35226;48.606;8.858;2023-04-01T14:50:44;95098.19;;;12.32;100.00
19023;BME280;35226;48.606;8.858;2023-04-01T14:55:55;95102.59;;;12.03;100.00
19023;BME280;35226;48.606;8.858;2023-04-01T14:58:23;95108.41;;;12.26;100.00
19023;BME280;35226;48.606;8.858;2023-04-01T15:04:14;95104.53;;;12.17;100.00
19023;BME280;35226;48.606;8.858;2023-04-01T15:09:42;95108.91;;;12.04;100.00
19023;BME280;35226;48.606;8.858;2023-04-01T15:17:48;95111.06;;;12.55;100.00
19023;BME280;35226;48.606;8.858;2023-04-01T15:23:29;95113.50;;;12.47;100.00
19023;BME280;35226;48.606;8.858;2023-04-01T15:29:02;95128.91;;;12.13;100.00
19023;BME280;35226;48.606;8.858;2023-04-01T15:32:02;95128.75;;;11.88;100.00
19023;BME280;35226;48.606;8.858;2023-04-01T15:45:44;95150.53;;;11.95;100.00
19023;BME280;35226;48.606;8.858;2023-04-01T16:04:58;95160.25;;;11.75;100.00
19023;BME280;35226;48.606;8.858;2023-04-01T16:12:47;95143.13;;;12.06;100.00
19023;BME280;35226;48.606;8.858;2023-04-01T16:23:59;95140.75;;;12.14;100.00
19023;BME280;35226;48.606;8.858;2023-04-01T16:27:00;95149.03;;;12.49;100.00
19023;BME280;35226;48.606;8.858;2023-04-01T16:32:28;95156.44;;;12.02;100.00
19023;BME280;35226;48.606;8.858;2023-04-01T16:37:46;95156.38;;;12.17;100.00
19023;BME280;35226;48.606;8.858;2023-04-01T16:43:06;95156.56;;;12.48;100.00
19023;BME280;35226;48.606;8.858;2023-04-01T16:45:43;95160.75;;;11.74;100.00
19023;BME280;35226;48.606;8.858;2023-04-01T16:48:15;95162.44;;;12.01;100.00
19023;BME280;35226;48.606;8.858;2023-04-01T16:53:16;95175.69;;;11.67;100.00
19023;BME280;35226;48.606;8.858;2023-04-01T16:58:36;95160.44;;;11.57;100.00
19023;BME280;35226;48.606;8.858;2023-04-01T17:01:04;95170.00;;;11.71;100.00
19023;BME280;35226;48.606;8.858;2023-04-01T17:03:53;95163.22;;;11.72;100.00
19023;BME280;35226;48.606;8.858;2023-04-01T17:06:31;95166.38;;;11.50;100.00
19023;BME280;35226;48.606;8.858;2023-04-01T17:09:13;95163.97;;;11.58;100.00
19023;BME280;35226;48.606;8.858;2023-04-01T17:11:59;95163.41;;;11.68;100.00
19023;BME280;35226;48.606;8.858;2023-04-01T17:19:53;95172.94;;;11.53;100.00
19023;BME280;35226;48.606;8.858;2023-04-01T17:22:33;95179.09;;;11.18;100.00
19023;BME280;35226;48.606;8.858;2023-04-01T17:25:17;95188.16;;;11.19;100.00
19023;BME280;35226;48.606;8.858;2023-04-01T17:58:03;95224.81;;;12.31;100.00
19023;BME280;35226;48.606;8.858;2023-04-01T18:09:08;95271.06;;;11.81;100.00
19023;BME280;35226;48.606;8.858;2023-04-01T18:20:11;95278.88;;;10.82;100.00
19023;BME280;35226;48.606;8.858;2023-04-01T18:23:00;95278.72;;;10.85;100.00
19023;BME280;35226;48.606;8.858;2023-04-01T18:25:39;95280.53;;;10.64;100.00
19023;BME280;35226;48.606;8.858;2023-04-01T18:33:43;95285.34;;;11.02;100.00
19023;BME280;35226;48.606;8.858;2023-04-01T18:36:24;95285.41;;;10.69;100.00
19023;BME280;35226;48.606;8.858;2023-04-01T18:39:00;95284.34;;;10.67;100.00
19023;BME280;35226;48.606;8.858;2023-04-01T18:44:46;95298.16;;;10.67;100.00
19023;BME280;35226;48.606;8.858;2023-04-01T18:50:15;95305.53;;;10.28;100.00
19023;BME280;35226;48.606;8.858;2023-04-01T18:52:46;95306.19;;;10.56;100.00
19023;BME280;35226;48.606;8.858;2023-04-01T18:57:48;95311.84;;;10.19;100.00
19023;BME280;35226;48.606;8.858;2023-04-01T19:00:24;95306.28;;;10.37;100.00
19023;BME280;35226;48.606;8.858;2023-04-01T19:02:56;95300.19;;;10.15;100.00
19023;BME280;35226;48.606;8.858;2023-04-01T19:05:29;95293.50;;;9.98;100.00
19023;BME280;35226;48.606;8.858;2023-04-01T19:13:34;95298.53;;;10.18;100.00
19023;BME280;35226;48.606;8.858;2023-04-01T19:19:05;95303.25;;;10.59;100.00
19023;BME280;35226;48.606;8.858;2023-04-01T19:21:42;95307.56;;;10.51;100.00
19023;BME280;35226;48.606;8.858;2023-04-01T19:37:51;95300.59;;;9.35;100.00
19023;BME280;35226;48.606;8.858;2023-04-01T19:45:38;95300.28;;;9.51;100.00
19023;BME280;35226;48.606;8.858;2023-04-01T19:51:11;95311.28;;;9.88;100.00
19023;BME280;35226;48.606;8.858;2023-04-01T19:53:41;95312.81;;;9.89;100.00
19023;BME280;35226;48.606;8.858;2023-04-01T19:56:20;95310.00;;;10.16;100.00
19023;BME280;35226;48.606;8.858;2023-04-01T20:01:59;95317.72;;;9.12;100.00
19023;BME280;35226;48.606;8.858;2023-04-01T20:04:33;95321.13;;;9.16;100.00
19023;BME280;35226;48.606;8.858;2023-04-01T20:07:24;95328.03;;;9.39;100.00
19023;BME280;35226;48.606;8.858;2023-04-01T20:10:09;95314.97;;;9.76;100.00
19023;BME280;35226;48.606;8.858;2023-04-01T20:12:47;95318.75;;;8.78;100.00
19023;BME280;35226;48.606;8.858;2023-04-01T20:17:51;95327.25;;;9.38;100.00
19023;BME280;35226;48.606;8.858;2023-04-01T20:20:25;95336.28;;;9.75;100.00
19023;BME280;35226;48.606;8.858;2023-04-01T20:23:41;95339.00;;;9.02;100.00
19023;BME280;35226;48.606;8.858;2023-04-01T20:26:09;95341.03;;;9.65;100.00
19023;BME280;35226;48.606;8.858;2023-04-01T20:28:59;95351.13;;;9.96;100.00
19023;BME280;35226;48.606;8.858;2023-04-01T20:34:31;95359.25;;;9.90;100.00
19023;BME280;35226;48.606;8.858;2023-04-01T20:51:04;95392.78;;;9.43;100.00
19023;BME280;35226;48.606;8.858;2023-04-01T21:10:40;95402.94;;;9.55;100.00
19023;BME280;35226;48.606;8.858;2023-04-01T21:13:38;95399.41;;;9.46;100.00
19023;BME280;35226;48.606;8.858;2023-04-01T21:44:10;95406.78;;;9.85;100.00
19023;BME280;35226;48.606;8.858;2023-04-01T21:46:54;95406.59;;;9.71;100.00
19023;BME280;35226;48.606;8.858;2023-04-01T22:00:38;95412.84;;;9.35;100.00
19023;BME280;35226;48.606;8.858;2023-04-01T22:03:27;95422.34;;;9.43;100.00
19023;BME280;35226;48.606;8.858;2023-04-01T22:06:19;95419.78;;;9.57;100.00
19023;BME280;35226;48.606;8.858;2023-04-01T22:12:04;95426.97;;;9.46;100.00
19023;BME280;35226;48.606;8.858;2023-04-01T22:14:57;95422.66;;;9.36;100.00
19023;BME280;35226;48.606;8.858;2023-04-01T22:17:34;95436.06;;;9.06;100.00
19023;BME280;35226;48.606;8.858;2023-04-01T22:23:01;95443.81;;;9.39;100.00
19023;BME280;35226;48.606;8.858;2023-04-01T22:28:27;95458.31;;;8.81;100.00
19023;BME280;35226;48.606;8.858;2023-04-01T22:31:03;95439.06;;;9.48;100.00
19023;BME280;35226;48.606;8.858;2023-04-01T22:36:39;95455.22;;;8.48;100.00
19023;BME280;35226;48.606;8.858;2023-04-01T22:39:44;95446.63;;;8.68;100.00
19023;BME280;35226;48.606;8.858;2023-04-01T22:51:15;95459.47;;;8.40;100.00
19023;BME280;35226;48.606;8.858;2023-04-01T22:54:01;95460.38;;;8.24;100.00
19023;BME280;35226;48.606;8.858;2023-04-01T22:56:33;95460.00;;;8.13;100.00
19023;BME280;35226;48.606;8.858;2023-04-01T22:59:08;95452.72;;;9.03;100.00
19023;BME280;35226;48.606;8.858;2023-04-01T23:01:41;95456.50;;;8.87;100.00
19023;BME280;35226;48.606;8.858;2023-04-01T23:04:12;95459.81;;;8.29;100.00
19023;BME280;35226;48.606;8.858;2023-04-01T23:06:46;95469.56;;;8.43;100.00
19023;BME280;35226;48.606;8.858;2023-04-01T23:09:25;95454.47;;;9.18;100.00
19023;BME280;35226;48.606;8.858;2023-04-01T23:12:02;95454.50;;;8.87;100.00
19023;BME280;35226;48.606;8.858;2023-04-01T23:14:35;95463.81;;;8.81;100.00
19023;BME280;35226;48.606;8.858;2023-04-01T23:24:51;95463.72;;;9.43;100.00
19023;BME280;35226;48.606;8.858;2023-04-01T23:29:46;95469.84;;;9.47;100.00
19023;BME280;35226;48.606;8.858;2023-04-01T23:32:15;95466.81;;;9.54;100.00
19023;BME280;35226;48.606;8.858;2023-04-01T23:34:48;95477.66;;;8.25;100.00
19023;BME280;35226;48.606;8.858;2023-04-01T23:37:15;95480.47;;;8.77;100.00
19023;BME280;35226;48.606;8.858;2023-04-01T23:39:45;95472.50;;;9.10;100.00
19023;BME280;35226;48.606;8.858;2023-04-01T23:42:27;95477.06;;;9.04;100.00
19023;BME280;35226;48.606;8.858;2023-04-01T23:45:03;95480.47;;;8.77;100.00
19023;BME280;35226;48.606;8.858;2023-04-01T23:47:34;95489.00;;;8.70;100.00
19023;BME280;35226;48.606;8.858;2023-04-01T23:50:04;95492.69;;;9.07;100.00
19023;BME280;35226;48.606;8.858;2023-04-01T23:52:40;95498.69;;;7.97;100.00
19023;BME280;35226;48.606;8.858;2023-04-01T23:55:17;95495.91;;;8.75;100.00
